PWSweather.com
Personal Weather Stations
Station Observations
SEVANL01
SevillaES 41004

SevillaES 41004

Lat: 37.383633, Lon: -5.985787

Elevation: 19.685

Station Type: Davis Vantage Pro2

www.tiempoensevilla.es

High Low Average
Temperature 65.3°F18.5°C 56.8°F13.8°C 60.6°F15.9°C
Dew Point 59.9°F15.5°C 54.6°F12.6°C 56.6°F13.7°C
Winds 7.0 mph 11.3 kmh Calm Calm 2.0 mph WSW3.2 kmh WSW
Wind Gusts 16.0 mph25.7 kmh 1.0 mph1.6 kmh 5.0 mph8.0 kmh
Humidity 95% 73% 87%
Pressure 30.05 in1017.6 mb 29.93 in1013.5 mb -
Precipitation 0.02 in0.5 mm - -
Hour Temp Dew Point Humidity Winds Wind Gusts Pressure Precip Precip Rate Daily Precip Total
12:00 AM 61.6°F16.4°C 59.9°F15.5°C 94% 7.0 mph SW11.3 kmh SW 16.0 mph25.7 kmh 29.95 in1014.2 mb 0.02 in0.5 mm 0.00 in0.0 mm 0.02 in0.5 mm
12:20 AM 61.6°F16.4°C 59.9°F15.5°C 94% 6.4 mph SW10.3 kmh SW 13.0 mph20.9 kmh 29.94 in1013.9 mb 0.02 in0.5 mm 0.00 in0.0 mm 0.02 in0.5 mm
12:40 AM 61.6°F16.4°C 59.9°F15.5°C 94% 5.6 mph SW9.0 kmh SW 12.0 mph19.3 kmh 29.94 in1013.9 mb 0.01 in0.3 mm 0.00 in0.0 mm 0.01 in0.3 mm
01:00 AM 61.4°F16.3°C 59.7°F15.4°C 94% 3.6 mph SW5.8 kmh SW 8.0 mph12.9 kmh 29.94 in1013.9 mb 0.01 in0.3 mm 0.00 in0.0 mm 0.01 in0.3 mm
01:20 AM 61.0°F16.1°C 59.3°F15.2°C 94% 2.7 mph SW4.3 kmh SW 5.0 mph8.0 kmh 29.94 in1013.9 mb 0.01 in0.3 mm 0.00 in0.0 mm 0.01 in0.3 mm
01:40 AM 60.6°F15.9°C 58.9°F14.9°C 94% 2.0 mph SW3.2 kmh SW 5.0 mph8.0 kmh 29.94 in1013.9 mb 0.00 in0.0 mm 0.00 in0.0 mm 0.01 in0.3 mm
02:00 AM 60.3°F15.7°C 58.3°F14.6°C 93% 2.0 mph SW3.2 kmh SW 5.0 mph8.0 kmh 29.94 in1013.9 mb 0.00 in0.0 mm 0.00 in0.0 mm 0.01 in0.3 mm
02:20 AM 60.0°F15.6°C 58.3°F14.6°C 94% 2.7 mph SW4.3 kmh SW 6.0 mph9.7 kmh 29.94 in1013.9 mb 0.00 in0.0 mm 0.00 in0.0 mm 0.01 in0.3 mm
02:40 AM 59.8°F15.4°C 58.1°F14.5°C 94% 1.4 mph S2.3 kmh S 3.0 mph4.8 kmh 29.94 in1013.9 mb 0.00 in0.0 mm 0.00 in0.0 mm 0.01 in0.3 mm
03:00 AM 59.6°F15.3°C 57.9°F14.4°C 94% 1.0 mph WSW1.6 kmh WSW 4.0 mph6.4 kmh 29.94 in1013.9 mb 0.00 in0.0 mm 0.00 in0.0 mm 0.01 in0.3 mm
03:20 AM 59.5°F15.3°C 57.8°F14.3°C 94% 1.0 mph WSW1.6 kmh WSW 3.0 mph4.8 kmh 29.94 in1013.9 mb 0.00 in0.0 mm 0.00 in0.0 mm 0.01 in0.3 mm
03:40 AM 59.3°F15.2°C 57.6°F14.2°C 94% 2.0 mph SW3.2 kmh SW 5.0 mph8.0 kmh 29.94 in1013.9 mb 0.00 in0.0 mm 0.00 in0.0 mm 0.01 in0.3 mm
04:00 AM 59.0°F15.0°C 57.3°F14.1°C 94% 1.0 mph SW1.6 kmh SW 3.0 mph4.8 kmh 29.94 in1013.9 mb 0.00 in0.0 mm 0.00 in0.0 mm 0.01 in0.3 mm
04:20 AM 58.7°F14.8°C 57.0°F13.9°C 94% 1.5 mph SSW2.4 kmh SSW 5.0 mph8.0 kmh 29.93 in1013.5 mb 0.00 in0.0 mm 0.00 in0.0 mm 0.01 in0.3 mm
04:40 AM 58.3°F14.6°C 56.6°F13.7°C 94% 1.0 mph SSW1.6 kmh SSW 4.0 mph6.4 kmh 29.93 in1013.5 mb 0.00 in0.0 mm 0.00 in0.0 mm 0.01 in0.3 mm
05:00 AM 58.0°F14.4°C 56.3°F13.5°C 94% 1.8 mph SSW2.9 kmh SSW 5.0 mph8.0 kmh 29.93 in1013.5 mb 0.00 in0.0 mm 0.00 in0.0 mm 0.01 in0.3 mm
05:20 AM 57.8°F14.3°C 56.1°F13.4°C 94% 2.0 mph SSW3.2 kmh SSW 4.0 mph6.4 kmh 29.93 in1013.5 mb 0.00 in0.0 mm 0.00 in0.0 mm 0.01 in0.3 mm
05:40 AM 57.8°F14.3°C 56.4°F13.6°C 95% 2.0 mph SW3.2 kmh SW 4.0 mph6.4 kmh 29.93 in1013.5 mb 0.00 in0.0 mm 0.00 in0.0 mm 0.01 in0.3 mm
06:00 AM 57.9°F14.4°C 56.5°F13.6°C 95% 1.5 mph S2.4 kmh S 4.0 mph6.4 kmh 29.93 in1013.5 mb 0.00 in0.0 mm 0.00 in0.0 mm 0.01 in0.3 mm
06:20 AM 57.8°F14.3°C 56.4°F13.6°C 95% 1.0 mph SW1.6 kmh SW 3.0 mph4.8 kmh 29.94 in1013.9 mb 0.00 in0.0 mm 0.00 in0.0 mm 0.01 in0.3 mm
06:40 AM 57.9°F14.4°C 56.5°F13.6°C 95% 0.8 mph SW1.3 kmh SW 2.0 mph3.2 kmh 29.94 in1013.9 mb 0.00 in0.0 mm 0.00 in0.0 mm 0.01 in0.3 mm
07:00 AM 57.7°F14.3°C 56.3°F13.5°C 95% 1.8 mph SW2.9 kmh SW 5.0 mph8.0 kmh 29.95 in1014.2 mb 0.00 in0.0 mm 0.00 in0.0 mm 0.01 in0.3 mm
07:20 AM 57.8°F14.3°C 56.4°F13.6°C 95% 2.8 mph SW4.5 kmh SW 7.0 mph11.3 kmh 29.95 in1014.2 mb 0.00 in0.0 mm 0.00 in0.0 mm 0.01 in0.3 mm
07:40 AM 57.6°F14.2°C 56.2°F13.4°C 95% 1.7 mph S2.7 kmh S 4.0 mph6.4 kmh 29.96 in1014.6 mb 0.00 in0.0 mm 0.00 in0.0 mm 0.01 in0.3 mm
08:00 AM 57.2°F14.0°C 55.8°F13.2°C 95% 1.7 mph SSW2.7 kmh SSW 5.0 mph8.0 kmh 29.96 in1014.6 mb 0.00 in0.0 mm 0.00 in0.0 mm 0.01 in0.3 mm
08:20 AM 57.1°F13.9°C 55.7°F13.2°C 95% 0.8 mph SW1.3 kmh SW 2.0 mph3.2 kmh 29.97 in1014.9 mb 0.00 in0.0 mm 0.00 in0.0 mm 0.01 in0.3 mm
08:40 AM 56.8°F13.8°C 55.4°F13.0°C 95% 1.7 mph WSW2.7 kmh WSW 4.0 mph6.4 kmh 29.97 in1014.9 mb 0.00 in0.0 mm 0.00 in0.0 mm 0.01 in0.3 mm
09:00 AM 56.9°F13.8°C 55.5°F13.1°C 95% 1.0 mph SW1.6 kmh SW 3.0 mph4.8 kmh 29.98 in1015.2 mb 0.00 in0.0 mm 0.00 in0.0 mm 0.01 in0.3 mm
09:20 AM 56.8°F13.8°C 55.4°F13.0°C 95% 1.6 mph WSW2.6 kmh WSW 3.0 mph4.8 kmh 29.99 in1015.6 mb 0.00 in0.0 mm 0.00 in0.0 mm 0.01 in0.3 mm
09:40 AM 57.3°F14.1°C 55.9°F13.3°C 95% Calm Calm 2.0 mph3.2 kmh 30.00 in1015.9 mb 0.00 in0.0 mm 0.00 in0.0 mm 0.01 in0.3 mm
10:00 AM 57.4°F14.1°C 56.0°F13.3°C 95% 1.0 mph W1.6 kmh W 4.0 mph6.4 kmh 30.01 in1016.3 mb 0.00 in0.0 mm 0.00 in0.0 mm 0.01 in0.3 mm
10:20 AM 57.4°F14.1°C 55.7°F13.2°C 94% 1.4 mph WSW2.3 kmh WSW 5.0 mph8.0 kmh 30.02 in1016.6 mb 0.00 in0.0 mm 0.00 in0.0 mm 0.01 in0.3 mm
10:40 AM 57.8°F14.3°C 56.4°F13.6°C 95% 1.8 mph WNW2.9 kmh WNW 6.0 mph9.7 kmh 30.02 in1016.6 mb 0.00 in0.0 mm 0.00 in0.0 mm 0.01 in0.3 mm
11:00 AM 58.3°F14.6°C 56.6°F13.7°C 94% 1.0 mph WSW1.6 kmh WSW 4.0 mph6.4 kmh 30.02 in1016.6 mb 0.00 in0.0 mm 0.00 in0.0 mm 0.01 in0.3 mm
11:20 AM 58.7°F14.8°C 56.7°F13.7°C 93% 1.9 mph W3.1 kmh W 4.0 mph6.4 kmh 30.03 in1016.9 mb 0.00 in0.0 mm 0.00 in0.0 mm 0.01 in0.3 mm
11:40 AM 59.2°F15.1°C 56.9°F13.8°C 92% 1.0 mph W1.6 kmh W 3.0 mph4.8 kmh 30.03 in1016.9 mb 0.00 in0.0 mm 0.00 in0.0 mm 0.01 in0.3 mm
12:00 PM 59.9°F15.5°C 57.0°F13.9°C 90% 0.9 mph E1.4 kmh E 2.0 mph3.2 kmh 30.02 in1016.6 mb 0.00 in0.0 mm 0.00 in0.0 mm 0.01 in0.3 mm
12:20 PM 60.6°F15.9°C 57.0°F13.9°C 88% 0.3 mph SE0.5 kmh SE 2.0 mph3.2 kmh 30.02 in1016.6 mb 0.00 in0.0 mm 0.00 in0.0 mm 0.01 in0.3 mm
12:40 PM 61.9°F16.6°C 57.7°F14.3°C 86% Calm Calm 2.0 mph3.2 kmh 30.01 in1016.3 mb 0.00 in0.0 mm 0.00 in0.0 mm 0.01 in0.3 mm
01:00 PM 62.9°F17.2°C 57.7°F14.3°C 83% Calm Calm 1.0 mph1.6 kmh 30.00 in1015.9 mb 0.00 in0.0 mm 0.00 in0.0 mm 0.01 in0.3 mm
01:20 PM 63.3°F17.4°C 57.4°F14.1°C 81% Calm Calm 3.0 mph4.8 kmh 30.00 in1015.9 mb 0.00 in0.0 mm 0.00 in0.0 mm 0.01 in0.3 mm
01:40 PM 63.3°F17.4°C 57.4°F14.1°C 81% 1.0 mph WNW1.6 kmh WNW 4.0 mph6.4 kmh 29.99 in1015.6 mb 0.00 in0.0 mm 0.00 in0.0 mm 0.01 in0.3 mm
02:00 PM 64.4°F18.0°C 58.1°F14.5°C 80% 1.0 mph WNW1.6 kmh WNW 3.0 mph4.8 kmh 29.98 in1015.2 mb 0.00 in0.0 mm 0.00 in0.0 mm 0.01 in0.3 mm
02:20 PM 64.3°F17.9°C 57.6°F14.2°C 79% 1.0 mph NW1.6 kmh NW 3.0 mph4.8 kmh 29.98 in1015.2 mb 0.00 in0.0 mm 0.00 in0.0 mm 0.01 in0.3 mm
02:40 PM 64.6°F18.1°C 56.5°F13.6°C 75% 2.6 mph W4.2 kmh W 4.0 mph6.4 kmh 29.97 in1014.9 mb 0.01 in0.3 mm 0.03 in0.8 mm 0.02 in0.5 mm
03:00 PM 64.9°F18.3°C 56.8°F13.8°C 75% 2.0 mph WNW3.2 kmh WNW 7.0 mph11.3 kmh 29.97 in1014.9 mb 0.01 in0.3 mm 0.00 in0.0 mm 0.02 in0.5 mm
03:20 PM 65.3°F18.5°C 57.2°F14.0°C 75% 2.0 mph SW3.2 kmh SW 7.0 mph11.3 kmh 29.97 in1014.9 mb 0.01 in0.3 mm 0.00 in0.0 mm 0.02 in0.5 mm
03:40 PM 64.9°F18.3°C 57.2°F14.0°C 76% 3.3 mph W5.3 kmh W 8.0 mph12.9 kmh 29.97 in1014.9 mb 0.00 in0.0 mm 0.00 in0.0 mm 0.02 in0.5 mm
04:00 PM 64.6°F18.1°C 56.9°F13.8°C 76% 3.0 mph W4.8 kmh W 5.0 mph8.0 kmh 29.97 in1014.9 mb 0.00 in0.0 mm 0.00 in0.0 mm 0.02 in0.5 mm
04:20 PM 64.7°F18.2°C 56.6°F13.7°C 75% 3.2 mph WSW5.1 kmh WSW 8.0 mph12.9 kmh 29.96 in1014.6 mb 0.00 in0.0 mm 0.00 in0.0 mm 0.02 in0.5 mm
04:40 PM 65.0°F18.3°C 56.5°F13.6°C 74% 3.5 mph WSW5.6 kmh WSW 7.0 mph11.3 kmh 29.97 in1014.9 mb 0.00 in0.0 mm 0.00 in0.0 mm 0.02 in0.5 mm
05:00 PM 64.5°F18.1°C 56.4°F13.6°C 75% 3.0 mph WSW4.8 kmh WSW 8.0 mph12.9 kmh 29.97 in1014.9 mb 0.00 in0.0 mm 0.00 in0.0 mm 0.02 in0.5 mm
05:20 PM 64.3°F17.9°C 55.5°F13.1°C 73% 3.0 mph WSW4.8 kmh WSW 7.0 mph11.3 kmh 29.96 in1014.6 mb 0.00 in0.0 mm 0.00 in0.0 mm 0.02 in0.5 mm
05:40 PM 63.9°F17.7°C 55.8°F13.2°C 75% 2.0 mph WSW3.2 kmh WSW 6.0 mph9.7 kmh 29.97 in1014.9 mb 0.00 in0.0 mm 0.00 in0.0 mm 0.02 in0.5 mm
06:00 PM 63.6°F17.6°C 55.9°F13.3°C 76% 3.1 mph W5.0 kmh W 6.0 mph9.7 kmh 29.98 in1015.2 mb 0.00 in0.0 mm 0.00 in0.0 mm 0.02 in0.5 mm
06:20 PM 63.5°F17.5°C 55.8°F13.2°C 76% 2.0 mph W3.2 kmh W 4.0 mph6.4 kmh 29.98 in1015.2 mb 0.00 in0.0 mm 0.00 in0.0 mm 0.02 in0.5 mm
06:40 PM 63.4°F17.4°C 55.7°F13.2°C 76% 2.1 mph W3.4 kmh W 6.0 mph9.7 kmh 29.98 in1015.2 mb 0.00 in0.0 mm 0.00 in0.0 mm 0.02 in0.5 mm
07:00 PM 63.3°F17.4°C 55.6°F13.1°C 76% 1.0 mph W1.6 kmh W 3.0 mph4.8 kmh 29.98 in1015.2 mb 0.00 in0.0 mm 0.00 in0.0 mm 0.02 in0.5 mm
07:20 PM 63.2°F17.3°C 55.5°F13.1°C 76% 2.4 mph WSW3.9 kmh WSW 5.0 mph8.0 kmh 29.99 in1015.6 mb 0.00 in0.0 mm 0.00 in0.0 mm 0.02 in0.5 mm
07:40 PM 63.0°F17.2°C 55.7°F13.2°C 77% 2.5 mph WSW4.0 kmh WSW 8.0 mph12.9 kmh 30.00 in1015.9 mb 0.00 in0.0 mm 0.00 in0.0 mm 0.02 in0.5 mm
08:00 PM 62.8°F17.1°C 55.5°F13.1°C 77% 3.2 mph WSW5.1 kmh WSW 8.0 mph12.9 kmh 30.00 in1015.9 mb 0.00 in0.0 mm 0.00 in0.0 mm 0.02 in0.5 mm
08:20 PM 62.4°F16.9°C 55.4°F13.0°C 78% 3.5 mph WSW5.6 kmh WSW 7.0 mph11.3 kmh 30.01 in1016.3 mb 0.00 in0.0 mm 0.00 in0.0 mm 0.02 in0.5 mm
08:40 PM 62.0°F16.7°C 55.8°F13.2°C 80% 4.1 mph WSW6.6 kmh WSW 8.0 mph12.9 kmh 30.02 in1016.6 mb 0.00 in0.0 mm 0.00 in0.0 mm 0.02 in0.5 mm
09:00 PM 61.4°F16.3°C 55.5°F13.1°C 81% 3.0 mph WSW4.8 kmh WSW 8.0 mph12.9 kmh 30.02 in1016.6 mb 0.00 in0.0 mm 0.00 in0.0 mm 0.02 in0.5 mm
09:20 PM 60.8°F16.0°C 55.3°F12.9°C 82% 4.0 mph WSW6.4 kmh WSW 9.0 mph14.5 kmh 30.03 in1016.9 mb 0.00 in0.0 mm 0.00 in0.0 mm 0.02 in0.5 mm
09:40 PM 60.2°F15.7°C 55.0°F12.8°C 83% 3.8 mph WSW6.1 kmh WSW 8.0 mph12.9 kmh 30.03 in1016.9 mb 0.00 in0.0 mm 0.00 in0.0 mm 0.02 in0.5 mm
10:00 PM 59.8°F15.4°C 55.0°F12.8°C 84% 4.1 mph WSW6.6 kmh WSW 7.0 mph11.3 kmh 30.04 in1017.3 mb 0.00 in0.0 mm 0.00 in0.0 mm 0.02 in0.5 mm
10:20 PM 59.4°F15.2°C 54.9°F12.7°C 85% 2.3 mph WSW3.7 kmh WSW 8.0 mph12.9 kmh 30.04 in1017.3 mb 0.00 in0.0 mm 0.00 in0.0 mm 0.02 in0.5 mm
10:40 PM 59.3°F15.2°C 54.8°F12.7°C 85% 2.4 mph W3.9 kmh W 6.0 mph9.7 kmh 30.04 in1017.3 mb 0.00 in0.0 mm 0.00 in0.0 mm 0.02 in0.5 mm
11:00 PM 59.3°F15.2°C 54.8°F12.7°C 85% 1.1 mph W1.8 kmh W 4.0 mph6.4 kmh 30.05 in1017.6 mb 0.00 in0.0 mm 0.00 in0.0 mm 0.02 in0.5 mm
11:20 PM 59.1°F15.1°C 54.9°F12.7°C 86% 0.5 mph WSW0.8 kmh WSW 2.0 mph3.2 kmh 30.05 in1017.6 mb 0.00 in0.0 mm 0.00 in0.0 mm 0.02 in0.5 mm
11:40 PM 58.8°F14.9°C 54.6°F12.6°C 86% 0.8 mph WSW1.3 kmh WSW 3.0 mph4.8 kmh 30.05 in1017.6 mb 0.00 in0.0 mm 0.00 in0.0 mm 0.02 in0.5 mm